createdAt,value
2022-10-23T00:01:38.472Z,85.78
2022-10-23T00:04:22.829Z,85.27
2022-10-23T00:06:49.777Z,85.50
2022-10-23T00:09:19.641Z,85.33
2022-10-23T00:11:47.738Z,85.75
2022-10-23T00:14:16.891Z,86.84
2022-10-23T00:16:43.853Z,87.08
2022-10-23T00:19:10.817Z,85.85
2022-10-23T00:21:38.551Z,85.50
2022-10-23T00:24:06.090Z,85.63
2022-10-23T00:26:32.992Z,84.31
2022-10-23T00:28:59.951Z,86.15
2022-10-23T00:31:26.833Z,87.93
2022-10-23T00:33:53.890Z,87.95
2022-10-23T00:36:22.011Z,86.73
2022-10-23T00:38:50.841Z,87.44
2022-10-23T00:41:24.481Z,87.79
2022-10-23T00:44:10.519Z,86.53
2022-10-23T00:46:39.375Z,87.83
2022-10-23T00:49:08.179Z,87.82
2022-10-23T00:51:57.379Z,89.07
2022-10-23T00:54:27.472Z,88.78
2022-10-23T00:56:59.182Z,89.20
2022-10-23T00:59:30.588Z,89.12
2022-10-23T01:01:59.093Z,87.97
2022-10-23T01:04:28.071Z,90.26
2022-10-23T01:07:10.227Z,89.81
2022-10-23T01:09:50.813Z,89.93
2022-10-23T01:12:33.311Z,89.60
2022-10-23T01:15:21.994Z,88.63
2022-10-23T01:17:57.111Z,89.38
2022-10-23T01:20:46.644Z,89.95
2022-10-23T01:23:51.016Z,89.77
2022-10-23T01:26:29.890Z,90.80
2022-10-23T01:29:01.895Z,89.50
2022-10-23T01:31:36.131Z,88.93
2022-10-23T01:34:13.028Z,89.80
2022-10-23T01:36:47.297Z,89.99
2022-10-23T01:39:45.164Z,88.93
2022-10-23T01:42:18.866Z,90.59
2022-10-23T01:45:09.333Z,90.43
2022-10-23T01:47:44.270Z,89.51
2022-10-23T01:50:16.022Z,91.23
2022-10-23T01:52:45.816Z,90.73
2022-10-23T01:55:14.455Z,89.69
2022-10-23T01:57:45.695Z,90.24
2022-10-23T02:00:16.376Z,88.93
2022-10-23T02:02:53.978Z,89.82
2022-10-23T02:05:28.865Z,90.31
2022-10-23T02:07:58.757Z,88.49
2022-10-23T02:10:45.338Z,91.83
2022-10-23T02:13:37.499Z,91.79
2022-10-23T02:16:42.237Z,91.64
2022-10-23T02:19:35.548Z,91.86
2022-10-23T02:22:23.986Z,89.87
2022-10-23T02:24:57.230Z,92.57
2022-10-23T02:27:31.889Z,92.84
2022-10-23T02:30:08.273Z,92.50
2022-10-23T02:32:39.383Z,91.56
2022-10-23T02:35:07.571Z,91.04
2022-10-23T02:37:34.867Z,92.17
2022-10-23T02:40:05.076Z,92.06
2022-10-23T02:43:11.009Z,93.17
2022-10-23T02:46:05.450Z,91.89
2022-10-23T02:49:02.690Z,92.39
2022-10-23T02:51:47.769Z,92.37
2022-10-23T02:54:29.507Z,92.35
2022-10-23T02:57:12.243Z,92.44
2022-10-23T02:59:47.892Z,92.26
2022-10-23T03:02:23.387Z,90.85
2022-10-23T03:04:53.012Z,93.78
2022-10-23T03:07:20.673Z,93.68
2022-10-23T03:09:47.852Z,93.58
2022-10-23T03:12:14.650Z,92.33
2022-10-23T03:14:41.480Z,93.48
2022-10-23T03:17:08.585Z,91.35
2022-10-23T03:19:35.390Z,90.87
2022-10-23T03:22:04.193Z,92.82
2022-10-23T03:24:31.088Z,90.98
2022-10-23T03:26:57.892Z,91.73
2022-10-23T03:29:31.235Z,93.35
2022-10-23T03:31:58.102Z,94.04
2022-10-23T03:34:25.732Z,92.25
2022-10-23T03:36:53.533Z,93.88
2022-10-23T03:39:21.058Z,92.70
2022-10-23T03:41:48.230Z,90.55
2022-10-23T03:44:16.603Z,92.26
2022-10-23T03:46:45.123Z,90.00
2022-10-23T03:49:11.936Z,92.90
2022-10-23T03:51:43.425Z,93.05
2022-10-23T03:54:10.615Z,92.99
2022-10-23T03:56:38.156Z,93.54
2022-10-23T03:59:07.704Z,91.78
2022-10-23T04:01:34.867Z,93.57
2022-10-23T04:04:02.376Z,93.04
2022-10-23T04:06:29.864Z,93.21
2022-10-23T04:08:58.408Z,94.28
2022-10-23T04:11:25.546Z,94.60
2022-10-23T04:13:52.865Z,95.25
2022-10-23T04:16:19.984Z,92.51
2022-10-23T04:18:46.906Z,93.71
2022-10-23T04:21:13.686Z,93.60
2022-10-23T04:23:40.484Z,94.31
2022-10-23T04:26:16.820Z,94.99
2022-10-23T04:28:52.840Z,95.49
2022-10-23T04:31:20.367Z,95.10
2022-10-23T04:33:47.533Z,95.07
2022-10-23T04:36:27.550Z,95.02
2022-10-23T04:38:54.307Z,94.29
2022-10-23T04:41:21.175Z,95.28
2022-10-23T04:43:48.011Z,94.39
2022-10-23T04:46:15.672Z,93.83
2022-10-23T04:48:46.400Z,94.48
2022-10-23T04:51:22.100Z,96.07
2022-10-23T04:53:54.299Z,95.22
2022-10-23T04:56:39.510Z,94.57
2022-10-23T04:59:10.254Z,93.71
2022-10-23T05:01:39.400Z,92.94
2022-10-23T05:04:07.913Z,95.11
2022-10-23T05:06:45.086Z,94.45
2022-10-23T05:09:27.864Z,95.53
2022-10-23T05:12:16.652Z,95.32
2022-10-23T05:14:43.475Z,95.97
2022-10-23T05:17:17.416Z,95.01
2022-10-23T05:19:50.915Z,94.06
2022-10-23T05:22:20.714Z,93.94
2022-10-23T05:24:54.673Z,93.40
2022-10-23T05:27:25.043Z,94.85
2022-10-23T05:29:54.265Z,96.97
2022-10-23T05:32:27.833Z,95.88
2022-10-23T05:34:55.410Z,96.76
2022-10-23T05:37:26.638Z,95.05
2022-10-23T05:40:03.795Z,93.17
2022-10-23T05:42:34.444Z,93.99
2022-10-23T05:45:05.086Z,94.19
2022-10-23T05:47:50.356Z,93.95
2022-10-23T05:50:37.580Z,93.67
2022-10-23T05:53:27.385Z,93.28
2022-10-23T05:56:12.958Z,94.08
2022-10-23T05:58:45.047Z,96.30
2022-10-23T06:01:32.312Z,95.76
2022-10-23T06:04:05.067Z,96.06
2022-10-23T06:06:49.220Z,96.19
2022-10-23T06:09:16.830Z,95.01
2022-10-23T06:11:44.506Z,95.11
2022-10-23T06:14:18.018Z,95.34
2022-10-23T06:16:45.086Z,94.93
2022-10-23T06:19:13.438Z,94.57
2022-10-23T06:21:42.207Z,95.60
2022-10-23T06:24:12.622Z,95.90
2022-10-23T06:27:08.298Z,95.41
2022-10-23T06:29:42.534Z,96.54
2022-10-23T06:32:09.459Z,98.03
2022-10-23T06:34:37.732Z,97.46
2022-10-23T06:37:07.561Z,97.52
2022-10-23T06:39:46.114Z,99.72
2022-10-23T06:42:16.290Z,98.48
2022-10-23T06:44:52.116Z,99.42
2022-10-23T06:47:37.383Z,99.28
2022-10-23T06:50:23.229Z,98.32
2022-10-23T06:52:50.057Z,96.74
2022-10-23T06:55:18.664Z,96.57
2022-10-23T06:57:46.770Z,96.09
2022-10-23T07:00:13.968Z,96.08
2022-10-23T07:02:51.927Z,95.78
2022-10-23T07:05:20.268Z,95.22
2022-10-23T07:07:47.763Z,94.26
2022-10-23T07:10:19.833Z,93.04
2022-10-23T07:12:52.428Z,92.82
2022-10-23T07:15:40.368Z,92.63
2022-10-23T07:18:11.817Z,92.40
2022-10-23T07:20:59.800Z,92.15
2022-10-23T07:23:28.177Z,91.73
2022-10-23T07:25:55.476Z,90.86
2022-10-23T07:28:23.656Z,90.43
2022-10-23T07:31:01.097Z,89.24
2022-10-23T07:33:48.290Z,87.99
2022-10-23T07:36:19.165Z,87.31
2022-10-23T07:38:46.716Z,87.03
2022-10-23T07:41:13.602Z,85.76
2022-10-23T07:43:40.399Z,84.84
2022-10-23T07:46:07.993Z,84.86
2022-10-23T07:48:39.599Z,83.22
2022-10-23T07:51:13.580Z,84.20
2022-10-23T07:53:44.618Z,83.35
2022-10-23T07:56:50.011Z,83.37
2022-10-23T07:59:21.020Z,82.69
2022-10-23T08:01:55.710Z,82.64
2022-10-23T08:04:28.096Z,82.79
2022-10-23T08:06:59.966Z,82.57
2022-10-23T08:09:29.907Z,83.65
2022-10-23T08:11:57.512Z,82.73
2022-10-23T08:14:27.494Z,82.67
2022-10-23T08:16:55.515Z,83.32
2022-10-23T08:19:48.625Z,82.99
2022-10-23T08:22:16.571Z,83.31
2022-10-23T08:24:44.563Z,82.39
2022-10-23T08:27:11.432Z,82.61
2022-10-23T08:29:43.346Z,81.61
2022-10-23T08:32:10.304Z,81.84
2022-10-23T08:34:58.045Z,81.80
2022-10-23T08:37:27.216Z,81.38
2022-10-23T08:39:54.178Z,81.72
2022-10-23T08:42:40.373Z,81.13
2022-10-23T08:45:33.633Z,81.28
2022-10-23T08:48:21.587Z,80.80
2022-10-23T08:51:23.669Z,80.77
2022-10-23T08:54:06.597Z,81.09
2022-10-23T08:56:39.388Z,79.85
2022-10-23T08:59:21.258Z,79.88
2022-10-23T09:01:56.123Z,79.41
2022-10-23T09:04:23.042Z,78.94
2022-10-23T09:07:13.317Z,79.37
2022-10-23T09:10:02.006Z,79.40
2022-10-23T09:12:30.909Z,79.57
2022-10-23T09:15:24.264Z,79.82
2022-10-23T09:18:08.129Z,79.65
2022-10-23T09:20:36.100Z,79.82
2022-10-23T09:23:19.939Z,79.40
2022-10-23T09:25:48.862Z,78.25
2022-10-23T09:28:28.372Z,78.16
2022-10-23T09:31:06.778Z,78.48
2022-10-23T09:33:33.890Z,78.83
2022-10-23T09:36:04.083Z,78.63
2022-10-23T09:38:46.921Z,78.41
2022-10-23T09:41:35.641Z,78.06
2022-10-23T09:44:08.161Z,77.97
2022-10-23T09:46:43.220Z,77.52
2022-10-23T09:49:22.775Z,77.39
2022-10-23T09:52:35.052Z,77.37
2022-10-23T09:55:15.413Z,77.24
2022-10-23T09:57:44.702Z,77.31
2022-10-23T10:00:14.647Z,76.17
2022-10-23T10:02:44.446Z,77.50
2022-10-23T10:05:33.084Z,77.24
2022-10-23T10:08:38.433Z,76.69
2022-10-23T10:11:32.074Z,76.61
2022-10-23T10:14:08.096Z,76.66
2022-10-23T10:16:57.233Z,76.83
2022-10-23T10:23:20.660Z,76.77
2022-10-23T10:26:23.044Z,76.60
2022-10-23T10:29:13.996Z,76.17
2022-10-23T10:31:59.379Z,76.24
2022-10-23T10:34:47.685Z,76.28
2022-10-23T10:37:34.968Z,76.53
2022-10-23T10:40:22.042Z,75.98
2022-10-23T10:43:06.900Z,75.50
2022-10-23T10:45:39.490Z,76.07
2022-10-23T10:48:15.320Z,76.34
2022-10-23T10:51:11.571Z,76.35
2022-10-23T10:54:04.612Z,76.21
2022-10-23T10:56:35.473Z,76.06
2022-10-23T10:59:10.515Z,76.01
2022-10-23T11:01:45.826Z,76.17
2022-10-23T11:04:28.573Z,76.90
2022-10-23T11:06:57.539Z,76.69
2022-10-23T11:09:28.776Z,77.19
2022-10-23T11:11:57.554Z,77.09
2022-10-23T11:14:28.040Z,77.58
2022-10-23T11:17:00.774Z,77.71
2022-10-23T11:19:57.113Z,77.69
2022-10-23T11:22:50.157Z,77.88
2022-10-23T11:25:55.650Z,77.84
2022-10-23T11:28:26.376Z,77.91
2022-10-23T11:31:11.756Z,78.02
2022-10-23T11:33:57.603Z,78.21
2022-10-23T11:36:54.337Z,78.41
2022-10-23T11:39:27.582Z,78.33
2022-10-23T11:41:59.354Z,78.41
2022-10-23T11:44:45.350Z,78.27
2022-10-23T11:47:39.640Z,77.98
2022-10-23T11:50:07.557Z,78.38
2022-10-23T11:52:45.727Z,78.30
2022-10-23T11:55:19.961Z,78.45
2022-10-23T11:58:14.836Z,78.54
2022-10-23T12:01:18.042Z,78.38
2022-10-23T12:03:55.977Z,78.16
2022-10-23T12:06:29.809Z,78.58
2022-10-23T12:09:02.727Z,79.23
2022-10-23T12:11:48.470Z,79.08
2022-10-23T12:14:33.303Z,79.10
2022-10-23T12:17:00.836Z,78.87
2022-10-23T12:19:31.492Z,79.17
2022-10-23T12:22:01.250Z,79.66
2022-10-23T12:24:48.186Z,80.22
2022-10-23T12:27:20.129Z,79.63
2022-10-23T12:30:00.247Z,80.57
2022-10-23T12:32:52.564Z,80.14
2022-10-23T12:35:50.345Z,80.22
2022-10-23T12:38:32.575Z,79.36
2022-10-23T12:41:25.084Z,79.84
2022-10-23T12:43:56.971Z,80.33
2022-10-23T12:46:34.758Z,80.28
2022-10-23T12:49:12.722Z,80.38
2022-10-23T12:51:39.550Z,80.36
2022-10-23T12:54:21.575Z,80.86
2022-10-23T12:56:50.354Z,81.17
2022-10-23T12:59:26.029Z,81.34
2022-10-23T13:01:54.749Z,81.31
2022-10-23T13:04:34.591Z,81.11
2022-10-23T13:07:03.939Z,81.72
2022-10-23T13:09:41.055Z,81.13
2022-10-23T13:12:39.396Z,81.36
2022-10-23T13:15:06.153Z,81.14
2022-10-23T13:17:44.068Z,81.26
2022-10-23T13:20:17.452Z,80.77
2022-10-23T13:23:14.130Z,80.94
2022-10-23T13:25:41.266Z,81.42
2022-10-23T13:28:07.999Z,81.23
2022-10-23T13:30:40.887Z,82.00
2022-10-23T13:33:32.078Z,81.90
2022-10-23T13:36:02.175Z,82.06
2022-10-23T13:38:37.851Z,82.04
2022-10-23T13:41:17.647Z,82.68
2022-10-23T13:43:47.143Z,82.64
2022-10-23T13:46:15.130Z,82.37
2022-10-23T13:48:42.336Z,82.69
2022-10-23T13:51:24.396Z,82.36
2022-10-23T13:53:54.175Z,82.67
2022-10-23T13:56:24.139Z,83.22
2022-10-23T13:58:51.515Z,82.92
2022-10-23T14:01:33.417Z,83.65
2022-10-23T14:04:00.701Z,83.18
2022-10-23T14:06:27.822Z,83.51
2022-10-23T14:08:54.851Z,84.07
2022-10-23T14:11:22.042Z,84.13
2022-10-23T14:13:50.022Z,85.18
2022-10-23T14:16:19.430Z,84.85
2022-10-23T14:18:47.190Z,85.10
2022-10-23T14:21:16.900Z,85.09
2022-10-23T14:23:43.791Z,85.30
2022-10-23T14:26:14.181Z,86.05
2022-10-23T14:28:41.678Z,86.23
2022-10-23T14:31:12.069Z,85.82
2022-10-23T14:33:40.123Z,86.38
2022-10-23T14:36:08.443Z,85.95
2022-10-23T14:38:37.012Z,85.97
2022-10-23T14:41:10.478Z,86.11
2022-10-23T14:43:37.973Z,86.22
2022-10-23T14:46:10.274Z,86.91
2022-10-23T14:48:37.437Z,87.18
2022-10-23T14:51:07.476Z,87.04
2022-10-23T14:53:34.666Z,87.35
2022-10-23T14:56:04.083Z,87.81
2022-10-23T14:58:31.179Z,86.85
2022-10-23T15:00:59.877Z,86.53
2022-10-23T15:03:29.229Z,87.03
2022-10-23T15:05:56.827Z,87.40
2022-10-23T15:08:24.081Z,87.70
2022-10-23T15:10:51.265Z,87.79
2022-10-23T15:13:18.143Z,87.32
2022-10-23T15:15:45.292Z,87.63
2022-10-23T15:18:12.400Z,88.07
2022-10-23T15:20:39.992Z,89.27
2022-10-23T15:23:07.404Z,89.06
2022-10-23T15:25:34.591Z,89.23
2022-10-23T15:28:01.510Z,89.50
2022-10-23T15:30:28.489Z,90.12
2022-10-23T15:32:55.879Z,90.29
2022-10-23T15:35:22.944Z,90.03
2022-10-23T15:37:50.665Z,90.64
2022-10-23T15:40:17.583Z,91.36
2022-10-23T15:42:45.407Z,91.94
2022-10-23T15:45:16.383Z,92.58
2022-10-23T15:47:43.885Z,93.79
2022-10-23T15:50:10.826Z,94.00
2022-10-23T15:52:38.023Z,94.14
2022-10-23T15:55:05.445Z,94.70
2022-10-23T15:57:32.744Z,94.82
2022-10-23T16:00:00.287Z,94.51
2022-10-23T16:02:27.874Z,94.05
2022-10-23T16:04:55.208Z,93.83
2022-10-23T16:07:22.232Z,93.78
2022-10-23T16:09:49.191Z,93.57
2022-10-23T16:12:16.363Z,93.40
2022-10-23T16:14:43.410Z,94.07
2022-10-23T16:17:12.218Z,94.55
2022-10-23T16:19:40.866Z,94.42
2022-10-23T16:22:08.415Z,94.71
2022-10-23T16:24:35.466Z,94.59
2022-10-23T16:27:02.430Z,95.56
2022-10-23T16:29:29.950Z,95.50
2022-10-23T16:31:57.703Z,95.58
2022-10-23T16:34:24.802Z,95.06
2022-10-23T16:36:53.382Z,95.00
2022-10-23T16:39:28.959Z,94.15
2022-10-23T16:42:34.710Z,95.15
2022-10-23T16:45:12.772Z,95.58
2022-10-23T16:47:41.224Z,94.89
2022-10-23T16:50:08.982Z,95.96
2022-10-23T16:52:36.120Z,96.05
2022-10-23T16:55:04.838Z,96.24
2022-10-23T16:57:35.780Z,96.10
2022-10-23T17:00:05.307Z,95.71
2022-10-23T17:02:33.527Z,95.93
2022-10-23T17:05:01.975Z,95.91
2022-10-23T17:07:29.713Z,96.24
2022-10-23T17:09:57.364Z,96.15
2022-10-23T17:12:24.613Z,96.31
2022-10-23T17:14:52.304Z,97.57
2022-10-23T17:17:19.891Z,96.63
2022-10-23T17:19:50.106Z,97.11
2022-10-23T17:22:17.763Z,96.64
2022-10-23T17:24:48.714Z,97.23
2022-10-23T17:27:19.401Z,97.25
2022-10-23T17:33:13.402Z,96.78
2022-10-23T17:35:45.740Z,97.54
2022-10-23T17:38:15.814Z,97.97
2022-10-23T17:43:16.869Z,98.18
2022-10-23T17:45:46.437Z,98.03
2022-10-23T17:48:14.661Z,98.98
2022-10-23T17:50:42.389Z,98.92
2022-10-23T17:53:12.465Z,99.12
2022-10-23T17:55:42.516Z,98.63
2022-10-23T17:58:10.501Z,99.28
2022-10-23T18:00:38.449Z,98.46
2022-10-23T18:03:08.020Z,98.93
2022-10-23T18:05:36.511Z,99.30
2022-10-23T18:08:04.214Z,100.00
2022-10-23T18:10:35.282Z,99.79
2022-10-23T18:13:03.456Z,100.00
2022-10-23T18:15:34.450Z,100.00
2022-10-23T18:18:03.635Z,100.00
2022-10-23T18:20:31.390Z,100.00
2022-10-23T18:22:59.523Z,100.00
2022-10-23T18:25:27.437Z,100.00
2022-10-23T18:27:57.157Z,100.00
2022-10-23T18:30:28.252Z,100.00
2022-10-23T18:32:57.531Z,100.00
2022-10-23T18:38:30.435Z,100.00
2022-10-23T18:40:58.504Z,100.00
2022-10-23T18:43:42.511Z,100.00
2022-10-23T18:46:15.023Z,100.00
2022-10-23T18:48:43.948Z,100.00
2022-10-23T18:51:23.999Z,100.00
2022-10-23T18:53:52.707Z,100.00
2022-10-23T18:56:23.944Z,100.00
2022-10-23T18:58:54.488Z,100.00
2022-10-23T19:01:23.097Z,100.00
2022-10-23T19:03:51.419Z,100.00
2022-10-23T19:06:21.357Z,100.00
2022-10-23T19:08:49.879Z,100.00
2022-10-23T19:11:19.708Z,100.00
2022-10-23T19:13:48.835Z,100.00
2022-10-23T19:16:31.437Z,100.00
2022-10-23T19:19:04.455Z,100.00
2022-10-23T19:21:38.458Z,100.00
2022-10-23T19:24:10.390Z,100.00
2022-10-23T19:26:40.399Z,100.00
2022-10-23T19:29:12.141Z,100.00
2022-10-23T19:31:40.581Z,100.00
2022-10-23T19:34:08.541Z,100.00
2022-10-23T19:36:36.497Z,100.00
2022-10-23T19:39:04.399Z,100.00
2022-10-23T19:41:32.259Z,100.00
2022-10-23T19:44:02.161Z,100.00
2022-10-23T19:46:30.461Z,100.00
2022-10-23T19:48:58.221Z,100.00
2022-10-23T19:51:26.050Z,100.00
2022-10-23T19:53:55.562Z,100.00
2022-10-23T19:56:24.406Z,100.00
2022-10-23T19:58:52.324Z,100.00
2022-10-23T20:01:25.424Z,100.00
2022-10-23T20:03:54.600Z,100.00
2022-10-23T20:06:29.211Z,100.00
2022-10-23T20:08:57.495Z,100.00
2022-10-23T20:11:28.948Z,100.00
2022-10-23T20:13:57.721Z,100.00
2022-10-23T20:16:36.835Z,100.00
2022-10-23T20:19:07.306Z,100.00
2022-10-23T20:21:40.901Z,100.00
2022-10-23T20:24:10.178Z,100.00
2022-10-23T20:26:41.787Z,100.00
2022-10-23T20:29:09.540Z,100.00
2022-10-23T20:31:38.080Z,100.00
2022-10-23T20:34:09.379Z,100.00
2022-10-23T20:36:42.326Z,100.00
2022-10-23T20:39:18.881Z,100.00
2022-10-23T20:41:47.008Z,100.00
2022-10-23T20:46:50.310Z,100.00
2022-10-23T20:49:19.824Z,100.00
2022-10-23T20:51:55.439Z,100.00
2022-10-23T20:54:27.114Z,100.00
2022-10-23T20:56:54.400Z,100.00
2022-10-23T20:59:21.615Z,100.00
2022-10-23T21:01:50.839Z,100.00
2022-10-23T21:04:20.445Z,100.00
2022-10-23T21:07:08.961Z,100.00
2022-10-23T21:09:36.499Z,100.00
2022-10-23T21:12:03.417Z,100.00
2022-10-23T21:14:30.196Z,100.00
2022-10-23T21:16:56.950Z,100.00
2022-10-23T21:19:23.674Z,100.00
2022-10-23T21:21:50.528Z,100.00
2022-10-23T21:24:17.753Z,100.00
2022-10-23T21:26:45.522Z,100.00
2022-10-23T21:29:20.814Z,100.00
2022-10-23T21:31:59.657Z,100.00
2022-10-23T21:34:27.081Z,100.00
2022-10-23T21:37:11.927Z,100.00
2022-10-23T21:39:39.050Z,100.00
2022-10-23T21:42:05.802Z,100.00
2022-10-23T21:44:32.784Z,100.00
2022-10-23T21:46:59.605Z,100.00
2022-10-23T21:49:26.452Z,100.00
2022-10-23T21:51:53.222Z,100.00
2022-10-23T21:54:19.990Z,100.00
2022-10-23T21:56:49.118Z,100.00
2022-10-23T21:59:18.817Z,100.00
2022-10-23T22:01:47.734Z,100.00
2022-10-23T22:04:16.232Z,100.00
2022-10-23T22:06:43.942Z,100.00
2022-10-23T22:09:14.298Z,100.00
2022-10-23T22:11:41.787Z,100.00
2022-10-23T22:14:08.702Z,100.00
2022-10-23T22:16:35.541Z,100.00
2022-10-23T22:19:02.561Z,100.00
2022-10-23T22:21:30.827Z,100.00
2022-10-23T22:23:59.470Z,100.00
2022-10-23T22:26:29.810Z,100.00
2022-10-23T22:28:59.710Z,100.00
2022-10-23T22:31:30.118Z,100.00
2022-10-23T22:33:58.012Z,100.00
2022-10-23T22:36:26.261Z,100.00
2022-10-23T22:38:55.122Z,100.00
2022-10-23T22:41:22.811Z,100.00
2022-10-23T22:43:55.200Z,100.00
2022-10-23T22:46:25.529Z,100.00
2022-10-23T22:48:53.076Z,100.00
2022-10-23T22:51:22.283Z,100.00
2022-10-23T22:53:49.088Z,100.00
2022-10-23T22:56:19.760Z,100.00
2022-10-23T22:58:47.681Z,100.00
2022-10-23T23:01:27.352Z,100.00
2022-10-23T23:03:54.850Z,100.00
2022-10-23T23:06:23.586Z,100.00
2022-10-23T23:08:51.061Z,100.00
2022-10-23T23:11:19.983Z,100.00
2022-10-23T23:13:47.846Z,100.00
2022-10-23T23:16:26.482Z,100.00
2022-10-23T23:18:53.495Z,100.00
2022-10-23T23:21:20.657Z,100.00
2022-10-23T23:23:48.462Z,100.00
2022-10-23T23:26:15.652Z,100.00
2022-10-23T23:28:43.193Z,100.00
2022-10-23T23:31:19.461Z,100.00
2022-10-23T23:33:47.476Z,100.00
2022-10-23T23:36:20.411Z,100.00
2022-10-23T23:38:47.485Z,100.00
2022-10-23T23:41:16.885Z,100.00
2022-10-23T23:43:44.543Z,100.00
2022-10-23T23:46:12.417Z,100.00
2022-10-23T23:48:40.716Z,100.00
2022-10-23T23:51:07.536Z,100.00
2022-10-23T23:53:34.300Z,100.00
2022-10-23T23:56:01.089Z,100.00
2022-10-23T23:58:28.067Z,100.00
